sensor_id;sensor_type;location;lat;lon;timestamp;pressure;altitude;pressure_sealevel;temperature;humidity
4398;BME280;2213;49.720;7.296;2023-01-29T00:01:11;99340.72;;;0.91;100.00
4398;BME280;2213;49.720;7.296;2023-01-29T00:03:40;99333.94;;;0.90;100.00
4398;BME280;2213;49.720;7.296;2023-01-29T00:06:09;99338.91;;;0.93;100.00
4398;BME280;2213;49.720;7.296;2023-01-29T00:08:39;99337.03;;;0.95;100.00
4398;BME280;2213;49.720;7.296;2023-01-29T00:11:09;99335.75;;;0.88;100.00
4398;BME280;2213;49.720;7.296;2023-01-29T00:13:40;99332.28;;;0.89;100.00
4398;BME280;2213;49.720;7.296;2023-01-29T00:16:09;99330.09;;;0.83;100.00
4398;BME280;2213;49.720;7.296;2023-01-29T00:18:39;99332.84;;;0.80;100.00
4398;BME280;2213;49.720;7.296;2023-01-29T00:21:10;99329.66;;;0.76;100.00
4398;BME280;2213;49.720;7.296;2023-01-29T00:23:41;99333.75;;;0.79;100.00
4398;BME280;2213;49.720;7.296;2023-01-29T00:26:11;99333.00;;;0.77;100.00
4398;BME280;2213;49.720;7.296;2023-01-29T00:28:42;99345.16;;;0.75;100.00
4398;BME280;2213;49.720;7.296;2023-01-29T00:31:15;99339.19;;;0.74;100.00
4398;BME280;2213;49.720;7.296;2023-01-29T00:33:45;99347.81;;;0.73;100.00
4398;BME280;2213;49.720;7.296;2023-01-29T00:36:17;99355.53;;;0.73;100.00
4398;BME280;2213;49.720;7.296;2023-01-29T00:38:53;99370.19;;;0.73;100.00
4398;BME280;2213;49.720;7.296;2023-01-29T00:41:28;99362.28;;;0.76;100.00
4398;BME280;2213;49.720;7.296;2023-01-29T00:44:15;99376.06;;;0.75;100.00
4398;BME280;2213;49.720;7.296;2023-01-29T00:47:04;99372.75;;;0.73;100.00
4398;BME280;2213;49.720;7.296;2023-01-29T00:49:54;99381.38;;;0.72;100.00
4398;BME280;2213;49.720;7.296;2023-01-29T00:52:23;99392.69;;;0.69;100.00
4398;BME280;2213;49.720;7.296;2023-01-29T00:54:55;99378.44;;;0.64;100.00
4398;BME280;2213;49.720;7.296;2023-01-29T00:57:26;99372.66;;;0.60;100.00
4398;BME280;2213;49.720;7.296;2023-01-29T00:59:57;99366.66;;;0.60;100.00
4398;BME280;2213;49.720;7.296;2023-01-29T01:02:27;99380.63;;;0.56;100.00
4398;BME280;2213;49.720;7.296;2023-01-29T01:05:15;99384.34;;;0.52;100.00
4398;BME280;2213;49.720;7.296;2023-01-29T01:07:46;99388.34;;;0.56;100.00
4398;BME280;2213;49.720;7.296;2023-01-29T01:10:20;99383.06;;;0.59;100.00
4398;BME280;2213;49.720;7.296;2023-01-29T01:12:55;99373.22;;;0.51;100.00
4398;BME280;2213;49.720;7.296;2023-01-29T01:15:29;99367.16;;;0.52;100.00
4398;BME280;2213;49.720;7.296;2023-01-29T01:18:00;99365.56;;;0.49;100.00
4398;BME280;2213;49.720;7.296;2023-01-29T01:20:34;99367.03;;;0.54;100.00
4398;BME280;2213;49.720;7.296;2023-01-29T01:23:04;99369.34;;;0.58;100.00
4398;BME280;2213;49.720;7.296;2023-01-29T01:25:33;99358.13;;;0.59;100.00
4398;BME280;2213;49.720;7.296;2023-01-29T01:28:03;99355.47;;;0.61;100.00
4398;BME280;2213;49.720;7.296;2023-01-29T01:30:34;99349.75;;;0.56;100.00
4398;BME280;2213;49.720;7.296;2023-01-29T01:33:04;99350.78;;;0.53;100.00
4398;BME280;2213;49.720;7.296;2023-01-29T01:35:32;99346.56;;;0.52;100.00
4398;BME280;2213;49.720;7.296;2023-01-29T01:38:02;99346.47;;;0.54;100.00
4398;BME280;2213;49.720;7.296;2023-01-29T01:40:31;99339.47;;;0.56;100.00
4398;BME280;2213;49.720;7.296;2023-01-29T01:43:01;99333.41;;;0.57;100.00
4398;BME280;2213;49.720;7.296;2023-01-29T01:45:35;99332.50;;;0.58;100.00
4398;BME280;2213;49.720;7.296;2023-01-29T01:48:10;99332.94;;;0.50;100.00
4398;BME280;2213;49.720;7.296;2023-01-29T01:50:45;99331.41;;;0.47;100.00
4398;BME280;2213;49.720;7.296;2023-01-29T01:53:22;99326.06;;;0.50;100.00
4398;BME280;2213;49.720;7.296;2023-01-29T01:56:01;99313.56;;;0.44;100.00
4398;BME280;2213;49.720;7.296;2023-01-29T01:58:36;99307.50;;;0.45;100.00
4398;BME280;2213;49.720;7.296;2023-01-29T02:01:09;99318.41;;;0.49;100.00
4398;BME280;2213;49.720;7.296;2023-01-29T02:03:45;99315.97;;;0.47;100.00
4398;BME280;2213;49.720;7.296;2023-01-29T02:06:34;99310.81;;;0.47;100.00
4398;BME280;2213;49.720;7.296;2023-01-29T02:09:26;99306.59;;;0.46;100.00
4398;BME280;2213;49.720;7.296;2023-01-29T02:12:03;99304.91;;;0.45;100.00
4398;BME280;2213;49.720;7.296;2023-01-29T02:14:36;99301.25;;;0.49;100.00
4398;BME280;2213;49.720;7.296;2023-01-29T02:17:12;99299.97;;;0.42;100.00
4398;BME280;2213;49.720;7.296;2023-01-29T02:19:51;99304.00;;;0.46;100.00
4398;BME280;2213;49.720;7.296;2023-01-29T02:22:54;99294.75;;;0.44;100.00
4398;BME280;2213;49.720;7.296;2023-01-29T02:26:08;99298.34;;;0.41;100.00
4398;BME280;2213;49.720;7.296;2023-01-29T02:28:50;99293.25;;;0.40;100.00
4398;BME280;2213;49.720;7.296;2023-01-29T02:31:33;99291.34;;;0.43;100.00
4398;BME280;2213;49.720;7.296;2023-01-29T02:34:16;99291.41;;;0.42;100.00
4398;BME280;2213;49.720;7.296;2023-01-29T02:36:53;99292.25;;;0.42;100.00
4398;BME280;2213;49.720;7.296;2023-01-29T02:39:33;99293.91;;;0.43;100.00
4398;BME280;2213;49.720;7.296;2023-01-29T02:42:17;99296.28;;;0.46;100.00
4398;BME280;2213;49.720;7.296;2023-01-29T02:44:58;99303.28;;;0.44;100.00
4398;BME280;2213;49.720;7.296;2023-01-29T02:47:34;99300.97;;;0.40;100.00
4398;BME280;2213;49.720;7.296;2023-01-29T02:50:16;99309.53;;;0.40;100.00
4398;BME280;2213;49.720;7.296;2023-01-29T02:52:55;99316.34;;;0.41;100.00
4398;BME280;2213;49.720;7.296;2023-01-29T02:55:34;99333.13;;;0.33;100.00
4398;BME280;2213;49.720;7.296;2023-01-29T02:58:12;99330.09;;;0.26;100.00
4398;BME280;2213;49.720;7.296;2023-01-29T03:00:47;99331.66;;;0.29;100.00
4398;BME280;2213;49.720;7.296;2023-01-29T03:03:21;99330.75;;;0.30;100.00
4398;BME280;2213;49.720;7.296;2023-01-29T03:06:01;99330.63;;;0.31;100.00
4398;BME280;2213;49.720;7.296;2023-01-29T03:08:39;99326.31;;;0.32;100.00
4398;BME280;2213;49.720;7.296;2023-01-29T03:11:15;99329.66;;;0.34;100.00
4398;BME280;2213;49.720;7.296;2023-01-29T03:13:52;99320.34;;;0.31;100.00
4398;BME280;2213;49.720;7.296;2023-01-29T03:16:33;99314.22;;;0.34;100.00
4398;BME280;2213;49.720;7.296;2023-01-29T03:19:09;99318.91;;;0.27;100.00
4398;BME280;2213;49.720;7.296;2023-01-29T03:21:46;99313.56;;;0.30;100.00
4398;BME280;2213;49.720;7.296;2023-01-29T03:24:33;99317.44;;;0.23;100.00
4398;BME280;2213;49.720;7.296;2023-01-29T03:27:27;99317.50;;;0.22;100.00
4398;BME280;2213;49.720;7.296;2023-01-29T03:30:18;99314.66;;;0.26;100.00
4398;BME280;2213;49.720;7.296;2023-01-29T03:33:11;99313.75;;;0.27;100.00
4398;BME280;2213;49.720;7.296;2023-01-29T03:35:50;99316.34;;;0.27;100.00
4398;BME280;2213;49.720;7.296;2023-01-29T03:38:23;99310.44;;;0.25;100.00
4398;BME280;2213;49.720;7.296;2023-01-29T03:41:03;99321.38;;;0.29;100.00
4398;BME280;2213;49.720;7.296;2023-01-29T03:43:39;99320.72;;;0.25;100.00
4398;BME280;2213;49.720;7.296;2023-01-29T03:46:20;99311.44;;;0.23;100.00
4398;BME280;2213;49.720;7.296;2023-01-29T03:49:03;99308.97;;;0.21;100.00
4398;BME280;2213;49.720;7.296;2023-01-29T03:51:51;99313.94;;;0.24;100.00
4398;BME280;2213;49.720;7.296;2023-01-29T03:54:32;99302.06;;;0.22;100.00
4398;BME280;2213;49.720;7.296;2023-01-29T03:57:12;99302.91;;;0.22;100.00
4398;BME280;2213;49.720;7.296;2023-01-29T03:59:53;99304.94;;;0.17;100.00
4398;BME280;2213;49.720;7.296;2023-01-29T04:02:33;99313.75;;;0.13;100.00
4398;BME280;2213;49.720;7.296;2023-01-29T04:05:13;99318.78;;;0.15;100.00
4398;BME280;2213;49.720;7.296;2023-01-29T04:07:46;99311.38;;;0.10;100.00
4398;BME280;2213;49.720;7.296;2023-01-29T04:10:24;99301.88;;;0.11;100.00
4398;BME280;2213;49.720;7.296;2023-01-29T04:12:59;99297.38;;;0.14;100.00
4398;BME280;2213;49.720;7.296;2023-01-29T04:15:34;99298.13;;;0.16;100.00
4398;BME280;2213;49.720;7.296;2023-01-29T04:18:05;99300.53;;;0.19;100.00
4398;BME280;2213;49.720;7.296;2023-01-29T04:20:36;99302.38;;;0.17;100.00
4398;BME280;2213;49.720;7.296;2023-01-29T04:23:19;99294.81;;;0.14;100.00
4398;BME280;2213;49.720;7.296;2023-01-29T04:26:03;99299.88;;;0.16;100.00
4398;BME280;2213;49.720;7.296;2023-01-29T04:29:02;99311.19;;;0.13;100.00
4398;BME280;2213;49.720;7.296;2023-01-29T04:31:43;99309.78;;;0.08;100.00
4398;BME280;2213;49.720;7.296;2023-01-29T04:34:24;99314.09;;;0.07;100.00
4398;BME280;2213;49.720;7.296;2023-01-29T04:37:07;99321.81;;;0.07;100.00
4398;BME280;2213;49.720;7.296;2023-01-29T04:39:48;99323.81;;;0.02;100.00
4398;BME280;2213;49.720;7.296;2023-01-29T04:42:30;99324.75;;;0.01;100.00
4398;BME280;2213;49.720;7.296;2023-01-29T04:45:10;99325.50;;;0.03;100.00
4398;BME280;2213;49.720;7.296;2023-01-29T04:47:50;99316.84;;;0.04;100.00
4398;BME280;2213;49.720;7.296;2023-01-29T04:50:33;99323.66;;;0.05;100.00
4398;BME280;2213;49.720;7.296;2023-01-29T04:53:16;99328.25;;;0.00;100.00
4398;BME280;2213;49.720;7.296;2023-01-29T04:55:50;99319.13;;;-0.06;100.00
4398;BME280;2213;49.720;7.296;2023-01-29T04:58:31;99330.44;;;-0.08;100.00
4398;BME280;2213;49.720;7.296;2023-01-29T05:01:04;99310.59;;;-0.06;100.00
4398;BME280;2213;49.720;7.296;2023-01-29T05:03:36;99299.13;;;-0.01;100.00
4398;BME280;2213;49.720;7.296;2023-01-29T05:06:09;99302.44;;;0.02;100.00
4398;BME280;2213;49.720;7.296;2023-01-29T05:08:41;99307.09;;;-0.05;100.00
4398;BME280;2213;49.720;7.296;2023-01-29T05:11:10;99307.09;;;-0.05;100.00
4398;BME280;2213;49.720;7.296;2023-01-29T05:13:42;99300.50;;;-0.09;100.00
4398;BME280;2213;49.720;7.296;2023-01-29T05:16:17;99310.03;;;-0.11;100.00
4398;BME280;2213;49.720;7.296;2023-01-29T05:18:49;99307.28;;;-0.08;100.00
4398;BME280;2213;49.720;7.296;2023-01-29T05:21:21;99314.81;;;-0.05;100.00
4398;BME280;2213;49.720;7.296;2023-01-29T05:26:48;99313.91;;;-0.04;100.00
4398;BME280;2213;49.720;7.296;2023-01-29T05:29:34;99299.47;;;-0.07;100.00
4398;BME280;2213;49.720;7.296;2023-01-29T05:32:04;99291.69;;;-0.05;100.00
4398;BME280;2213;49.720;7.296;2023-01-29T05:34:34;99293.34;;;-0.04;100.00
4398;BME280;2213;49.720;7.296;2023-01-29T05:37:04;99284.88;;;-0.06;100.00
4398;BME280;2213;49.720;7.296;2023-01-29T05:39:33;99285.06;;;-0.09;100.00
4398;BME280;2213;49.720;7.296;2023-01-29T05:42:05;99287.63;;;-0.09;100.00
4398;BME280;2213;49.720;7.296;2023-01-29T05:44:35;99292.06;;;-0.11;100.00
4398;BME280;2213;49.720;7.296;2023-01-29T05:47:06;99292.97;;;-0.12;100.00
4398;BME280;2213;49.720;7.296;2023-01-29T05:49:37;99292.78;;;-0.09;100.00
4398;BME280;2213;49.720;7.296;2023-01-29T05:52:07;99289.19;;;-0.07;100.00
4398;BME280;2213;49.720;7.296;2023-01-29T05:54:37;99296.09;;;-0.07;100.00
4398;BME280;2213;49.720;7.296;2023-01-29T05:57:08;99302.16;;;-0.08;100.00
4398;BME280;2213;49.720;7.296;2023-01-29T05:59:38;99296.09;;;-0.07;100.00
4398;BME280;2213;49.720;7.296;2023-01-29T06:02:08;99285.06;;;-0.09;100.00
4398;BME280;2213;49.720;7.296;2023-01-29T06:04:39;99287.63;;;-0.09;100.00
4398;BME280;2213;49.720;7.296;2023-01-29T06:07:09;99284.06;;;-0.07;100.00
4398;BME280;2213;49.720;7.296;2023-01-29T06:09:38;99298.50;;;-0.04;100.00
4398;BME280;2213;49.720;7.296;2023-01-29T06:12:08;99297.56;;;-0.03;100.00
4398;BME280;2213;49.720;7.296;2023-01-29T06:14:39;99307.38;;;-0.10;100.00
4398;BME280;2213;49.720;7.296;2023-01-29T06:17:09;99320.03;;;-0.07;100.00
4398;BME280;2213;49.720;7.296;2023-01-29T06:19:40;99315.91;;;-0.09;100.00
4398;BME280;2213;49.720;7.296;2023-01-29T06:22:09;99303.31;;;-0.14;100.00
4398;BME280;2213;49.720;7.296;2023-01-29T06:24:39;99315.38;;;-0.14;100.00
4398;BME280;2213;49.720;7.296;2023-01-29T06:27:10;99317.00;;;-0.13;100.00
4398;BME280;2213;49.720;7.296;2023-01-29T06:29:40;99318.59;;;-0.11;100.00
4398;BME280;2213;49.720;7.296;2023-01-29T06:32:10;99303.97;;;-0.10;100.00
4398;BME280;2213;49.720;7.296;2023-01-29T06:34:40;99299.56;;;-0.22;100.00
4398;BME280;2213;49.720;7.296;2023-01-29T06:37:11;99295.44;;;-0.25;100.00
4398;BME280;2213;49.720;7.296;2023-01-29T06:39:42;99278.34;;;-0.26;100.00
4398;BME280;2213;49.720;7.296;2023-01-29T06:42:12;99265.94;;;-0.33;100.00
4398;BME280;2213;49.720;7.296;2023-01-29T06:44:43;99274.41;;;-0.31;100.00
4398;BME280;2213;49.720;7.296;2023-01-29T06:47:13;99276.22;;;-0.33;100.00
4398;BME280;2213;49.720;7.296;2023-01-29T06:49:43;99269.09;;;-0.28;100.00
4398;BME280;2213;49.720;7.296;2023-01-29T06:52:14;99271.47;;;-0.25;100.00
4398;BME280;2213;49.720;7.296;2023-01-29T06:54:42;99287.06;;;-0.28;100.00
4398;BME280;2213;49.720;7.296;2023-01-29T06:57:13;99289.41;;;-0.39;100.00
4398;BME280;2213;49.720;7.296;2023-01-29T06:59:42;99298.13;;;-0.42;100.00
4398;BME280;2213;49.720;7.296;2023-01-29T07:02:12;99294.81;;;-0.44;100.00
4398;BME280;2213;49.720;7.296;2023-01-29T07:04:43;99298.28;;;-0.45;100.00
4398;BME280;2213;49.720;7.296;2023-01-29T07:07:12;99296.47;;;-0.43;100.00
4398;BME280;2213;49.720;7.296;2023-01-29T07:09:43;99300.78;;;-0.43;100.00
4398;BME280;2213;49.720;7.296;2023-01-29T07:12:13;99292.88;;;-0.40;100.00
4398;BME280;2213;49.720;7.296;2023-01-29T07:14:44;99297.97;;;-0.39;100.00
4398;BME280;2213;49.720;7.296;2023-01-29T07:17:15;99293.47;;;-0.35;100.00
4398;BME280;2213;49.720;7.296;2023-01-29T07:19:44;99293.53;;;-0.37;100.00
4398;BME280;2213;49.720;7.296;2023-01-29T07:22:14;99291.81;;;-0.36;100.00
4398;BME280;2213;49.720;7.296;2023-01-29T07:24:43;99296.94;;;-0.36;100.00
4398;BME280;2213;49.720;7.296;2023-01-29T07:27:14;99297.59;;;-0.33;100.00
4398;BME280;2213;49.720;7.296;2023-01-29T07:29:44;99295.94;;;-0.34;100.00
4398;BME280;2213;49.720;7.296;2023-01-29T07:32:13;99289.88;;;-0.33;100.00
4398;BME280;2213;49.720;7.296;2023-01-29T07:34:43;99301.06;;;-0.34;100.00
4398;BME280;2213;49.720;7.296;2023-01-29T07:37:13;99316.59;;;-0.35;100.00
4398;BME280;2213;49.720;7.296;2023-01-29T07:39:42;99321.16;;;-0.40;100.00
4398;BME280;2213;49.720;7.296;2023-01-29T07:42:15;99331.25;;;-0.37;100.00
4398;BME280;2213;49.720;7.296;2023-01-29T07:44:45;99338.06;;;-0.36;100.00
4398;BME280;2213;49.720;7.296;2023-01-29T07:47:16;99348.69;;;-0.42;100.00
4398;BME280;2213;49.720;7.296;2023-01-29T07:49:46;99346.00;;;-0.41;100.00
4398;BME280;2213;49.720;7.296;2023-01-29T07:52:16;99345.84;;;-0.38;100.00
4398;BME280;2213;49.720;7.296;2023-01-29T07:54:48;99346.50;;;-0.34;100.00
4398;BME280;2213;49.720;7.296;2023-01-29T07:57:18;99343.00;;;-0.33;100.00
4398;BME280;2213;49.720;7.296;2023-01-29T07:59:47;99338.97;;;-0.37;100.00
4398;BME280;2213;49.720;7.296;2023-01-29T08:02:17;99335.41;;;-0.35;100.00
4398;BME280;2213;49.720;7.296;2023-01-29T08:04:47;99330.94;;;-0.31;100.00
4398;BME280;2213;49.720;7.296;2023-01-29T08:07:17;99340.38;;;-0.32;100.00
4398;BME280;2213;49.720;7.296;2023-01-29T08:09:47;99340.44;;;-0.33;100.00
4398;BME280;2213;49.720;7.296;2023-01-29T08:12:19;99336.38;;;-0.37;100.00
4398;BME280;2213;49.720;7.296;2023-01-29T08:14:49;99332.84;;;-0.35;100.00
4398;BME280;2213;49.720;7.296;2023-01-29T08:17:19;99334.47;;;-0.34;100.00
4398;BME280;2213;49.720;7.296;2023-01-29T08:19:49;99327.59;;;-0.33;100.00
4398;BME280;2213;49.720;7.296;2023-01-29T08:22:17;99313.84;;;-0.32;100.00
4398;BME280;2213;49.720;7.296;2023-01-29T08:24:46;99323.94;;;-0.29;100.00
4398;BME280;2213;49.720;7.296;2023-01-29T08:27:28;99312.75;;;-0.28;100.00
4398;BME280;2213;49.720;7.296;2023-01-29T08:29:57;99311.09;;;-0.29;100.00
4398;BME280;2213;49.720;7.296;2023-01-29T08:32:26;99302.81;;;-0.34;100.00
4398;BME280;2213;49.720;7.296;2023-01-29T08:34:56;99299.44;;;-0.35;100.00
4398;BME280;2213;49.720;7.296;2023-01-29T08:37:26;99295.63;;;-0.43;100.00
4398;BME280;2213;49.720;7.296;2023-01-29T08:39:57;99295.72;;;-0.45;100.00
4398;BME280;2213;49.720;7.296;2023-01-29T08:42:28;99300.13;;;-0.47;100.00
4398;BME280;2213;49.720;7.296;2023-01-29T08:44:58;99303.59;;;-0.48;100.00
4398;BME280;2213;49.720;7.296;2023-01-29T08:47:29;99307.75;;;-0.45;100.00
4398;BME280;2213;49.720;7.296;2023-01-29T08:49:59;99310.16;;;-0.42;100.00
4398;BME280;2213;49.720;7.296;2023-01-29T08:52:28;99311.06;;;-0.43;100.00
4398;BME280;2213;49.720;7.296;2023-01-29T08:54:58;99306.66;;;-0.41;100.00
4398;BME280;2213;49.720;7.296;2023-01-29T08:57:30;99310.81;;;-0.39;100.00
4398;BME280;2213;49.720;7.296;2023-01-29T09:00:00;99312.53;;;-0.39;100.00
4398;BME280;2213;49.720;7.296;2023-01-29T09:02:31;99319.16;;;-0.35;100.00
4398;BME280;2213;49.720;7.296;2023-01-29T09:05:01;99327.59;;;-0.33;100.00
4398;BME280;2213;49.720;7.296;2023-01-29T09:07:31;99334.94;;;-0.27;100.00
4398;BME280;2213;49.720;7.296;2023-01-29T09:10:00;99331.66;;;-0.29;100.00
4398;BME280;2213;49.720;7.296;2023-01-29T09:12:31;99336.06;;;-0.31;100.00
4398;BME280;2213;49.720;7.296;2023-01-29T09:15:00;99335.72;;;-0.25;100.00
4398;BME280;2213;49.720;7.296;2023-01-29T09:17:30;99342.34;;;-0.21;100.00
4398;BME280;2213;49.720;7.296;2023-01-29T09:20:00;99338.56;;;-0.16;100.00
4398;BME280;2213;49.720;7.296;2023-01-29T09:22:30;99339.47;;;-0.17;100.00
4398;BME280;2213;49.720;7.296;2023-01-29T09:25:00;99340.88;;;-0.11;100.00
4398;BME280;2213;49.720;7.296;2023-01-29T09:27:31;99349.25;;;-0.08;100.00
4398;BME280;2213;49.720;7.296;2023-01-29T09:30:00;99340.78;;;-0.10;100.00
4398;BME280;2213;49.720;7.296;2023-01-29T09:32:28;99327.94;;;-0.10;100.00
4398;BME280;2213;49.720;7.296;2023-01-29T09:35:19;99328.69;;;-0.08;100.00
4398;BME280;2213;49.720;7.296;2023-01-29T09:37:49;99330.16;;;-0.04;100.00
4398;BME280;2213;49.720;7.296;2023-01-29T09:40:24;99330.97;;;-0.03;100.00
4398;BME280;2213;49.720;7.296;2023-01-29T09:43:02;99328.31;;;-0.02;100.00
4398;BME280;2213;49.720;7.296;2023-01-29T09:45:32;99331.81;;;-0.03;100.00
4398;BME280;2213;49.720;7.296;2023-01-29T09:48:03;99343.03;;;-0.04;100.00
4398;BME280;2213;49.720;7.296;2023-01-29T09:50:37;99349.53;;;0.02;100.00
4398;BME280;2213;49.720;7.296;2023-01-29T09:53:18;99349.34;;;0.05;100.00
4398;BME280;2213;49.720;7.296;2023-01-29T09:55:54;99348.53;;;0.05;100.00
4398;BME280;2213;49.720;7.296;2023-01-29T09:58:33;99342.38;;;0.07;100.00
4398;BME280;2213;49.720;7.296;2023-01-29T10:01:14;99339.91;;;0.06;100.00
4398;BME280;2213;49.720;7.296;2023-01-29T10:04:06;99342.53;;;0.04;100.00
4398;BME280;2213;49.720;7.296;2023-01-29T10:07:00;99347.34;;;0.10;100.00
4398;BME280;2213;49.720;7.296;2023-01-29T10:10:11;99342.09;;;0.12;100.00
4398;BME280;2213;49.720;7.296;2023-01-29T10:13:12;99346.34;;;0.13;100.00
4398;BME280;2213;49.720;7.296;2023-01-29T10:16:06;99346.16;;;0.16;100.00
4398;BME280;2213;49.720;7.296;2023-01-29T10:22:49;99355.91;;;0.25;100.00
4398;BME280;2213;49.720;7.296;2023-01-29T10:25:23;99347.19;;;0.27;100.00
4398;BME280;2213;49.720;7.296;2023-01-29T10:27:57;99339.56;;;0.26;100.00
4398;BME280;2213;49.720;7.296;2023-01-29T10:30:32;99339.19;;;0.32;100.00
4398;BME280;2213;49.720;7.296;2023-01-29T10:33:08;99330.47;;;0.34;100.00
4398;BME280;2213;49.720;7.296;2023-01-29T10:35:45;99322.38;;;0.26;100.00
4398;BME280;2213;49.720;7.296;2023-01-29T10:38:45;99320.47;;;0.30;100.00
4398;BME280;2213;49.720;7.296;2023-01-29T10:41:30;99323.09;;;0.28;100.00
4398;BME280;2213;49.720;7.296;2023-01-29T10:44:19;99319.44;;;0.32;100.00
4398;BME280;2213;49.720;7.296;2023-01-29T10:47:17;99313.38;;;0.33;100.00
4398;BME280;2213;49.720;7.296;2023-01-29T10:50:14;99301.91;;;0.39;100.00
4398;BME280;2213;49.720;7.296;2023-01-29T10:53:08;99290.25;;;0.33;100.00
4398;BME280;2213;49.720;7.296;2023-01-29T10:55:55;99286.91;;;0.31;100.00
4398;BME280;2213;49.720;7.296;2023-01-29T10:58:39;99284.19;;;0.34;100.00
4398;BME280;2213;49.720;7.296;2023-01-29T11:01:13;99279.03;;;0.34;100.00
4398;BME280;2213;49.720;7.296;2023-01-29T11:03:43;99260.72;;;0.39;100.00
4398;BME280;2213;49.720;7.296;2023-01-29T11:06:21;99249.34;;;0.43;100.00
4398;BME280;2213;49.720;7.296;2023-01-29T11:08:59;99251.53;;;0.49;100.00
4398;BME280;2213;49.720;7.296;2023-01-29T11:11:36;99240.59;;;0.45;100.00
4398;BME280;2213;49.720;7.296;2023-01-29T11:14:15;99227.56;;;0.48;100.00
4398;BME280;2213;49.720;7.296;2023-01-29T11:16:47;99224.06;;;0.49;100.00
4398;BME280;2213;49.720;7.296;2023-01-29T11:19:17;99217.28;;;0.48;100.00
4398;BME280;2213;49.720;7.296;2023-01-29T11:21:57;99225.81;;;0.49;100.00
4398;BME280;2213;49.720;7.296;2023-01-29T11:24:27;99216.16;;;0.52;100.00
4398;BME280;2213;49.720;7.296;2023-01-29T11:26:59;99215.03;;;0.57;100.00
4398;BME280;2213;49.720;7.296;2023-01-29T11:29:38;99201.53;;;0.53;100.00
4398;BME280;2213;49.720;7.296;2023-01-29T11:32:13;99200.84;;;0.51;100.00
4398;BME280;2213;49.720;7.296;2023-01-29T11:35:02;99190.44;;;0.52;100.00
4398;BME280;2213;49.720;7.296;2023-01-29T11:37:36;99185.28;;;0.52;100.00
4398;BME280;2213;49.720;7.296;2023-01-29T11:40:39;99192.72;;;0.57;100.00
4398;BME280;2213;49.720;7.296;2023-01-29T11:43:21;99183.06;;;0.61;100.00
4398;BME280;2213;49.720;7.296;2023-01-29T11:45:53;99187.28;;;0.62;100.00
4398;BME280;2213;49.720;7.296;2023-01-29T11:48:34;99182.22;;;0.60;100.00
4398;BME280;2213;49.720;7.296;2023-01-29T11:51:11;99186.34;;;0.63;100.00
4398;BME280;2213;49.720;7.296;2023-01-29T11:53:48;99181.19;;;0.63;100.00
4398;BME280;2213;49.720;7.296;2023-01-29T11:56:26;99186.28;;;0.64;100.00
4398;BME280;2213;49.720;7.296;2023-01-29T11:58:57;99185.25;;;0.67;100.00
4398;BME280;2213;49.720;7.296;2023-01-29T12:01:35;99186.63;;;0.72;100.00
4398;BME280;2213;49.720;7.296;2023-01-29T12:04:18;99185.38;;;0.78;100.00
4398;BME280;2213;49.720;7.296;2023-01-29T12:06:51;99188.88;;;0.77;100.00
4398;BME280;2213;49.720;7.296;2023-01-29T12:09:26;99189.81;;;0.76;100.00
4398;BME280;2213;49.720;7.296;2023-01-29T12:12:17;99184.56;;;0.77;100.00
4398;BME280;2213;49.720;7.296;2023-01-29T12:15:15;99170.78;;;0.78;100.00
4398;BME280;2213;49.720;7.296;2023-01-29T12:18:22;99168.28;;;0.77;100.00
4398;BME280;2213;49.720;7.296;2023-01-29T12:21:01;99163.53;;;0.71;100.00
4398;BME280;2213;49.720;7.296;2023-01-29T12:23:40;99172.91;;;0.72;100.00
4398;BME280;2213;49.720;7.296;2023-01-29T12:26:17;99156.44;;;0.74;100.00
4398;BME280;2213;49.720;7.296;2023-01-29T12:29:06;99153.47;;;0.80;100.00
4398;BME280;2213;49.720;7.296;2023-01-29T12:31:48;99143.19;;;0.80;100.00
4398;BME280;2213;49.720;7.296;2023-01-29T12:34:28;99131.13;;;0.81;100.00
4398;BME280;2213;49.720;7.296;2023-01-29T12:37:12;99126.53;;;0.86;100.00
4398;BME280;2213;49.720;7.296;2023-01-29T12:39:46;99131.47;;;0.89;100.00
4398;BME280;2213;49.720;7.296;2023-01-29T12:42:19;99121.19;;;0.89;100.00
4398;BME280;2213;49.720;7.296;2023-01-29T12:44:53;99130.16;;;0.96;100.00
4398;BME280;2213;49.720;7.296;2023-01-29T12:47:31;99122.94;;;0.88;100.00
4398;BME280;2213;49.720;7.296;2023-01-29T12:50:07;99114.56;;;0.85;100.00
4398;BME280;2213;49.720;7.296;2023-01-29T12:52:47;99105.53;;;0.92;100.00
4398;BME280;2213;49.720;7.296;2023-01-29T12:55:20;99106.97;;;0.96;100.00
4398;BME280;2213;49.720;7.296;2023-01-29T12:57:56;99102.03;;;0.93;100.00
4398;BME280;2213;49.720;7.296;2023-01-29T13:00:31;99100.09;;;0.96;100.00
4398;BME280;2213;49.720;7.296;2023-01-29T13:03:09;99100.78;;;0.98;100.00
4398;BME280;2213;49.720;7.296;2023-01-29T13:05:47;99100.59;;;1.01;100.00
4398;BME280;2213;49.720;7.296;2023-01-29T13:08:23;99093.69;;;1.02;100.00
4398;BME280;2213;49.720;7.296;2023-01-29T13:10:57;99088.66;;;1.00;100.00
4398;BME280;2213;49.720;7.296;2023-01-29T13:13:34;99085.69;;;1.07;100.00
4398;BME280;2213;49.720;7.296;2023-01-29T13:16:09;99089.09;;;1.07;100.00
4398;BME280;2213;49.720;7.296;2023-01-29T13:18:45;99082.97;;;1.08;100.00
4398;BME280;2213;49.720;7.296;2023-01-29T13:21:18;99083.09;;;1.07;100.00
4398;BME280;2213;49.720;7.296;2023-01-29T13:23:53;99077.84;;;1.08;100.00
4398;BME280;2213;49.720;7.296;2023-01-29T13:26:23;99076.09;;;1.09;100.00
4398;BME280;2213;49.720;7.296;2023-01-29T13:28:57;99081.25;;;1.09;100.00
4398;BME280;2213;49.720;7.296;2023-01-29T13:31:30;99080.53;;;1.07;100.00
4398;BME280;2213;49.720;7.296;2023-01-29T13:34:13;99081.03;;;1.12;100.00
4398;BME280;2213;49.720;7.296;2023-01-29T13:36:47;99076.72;;;1.12;100.00
4398;BME280;2213;49.720;7.296;2023-01-29T13:39:23;99075.59;;;1.16;100.00
4398;BME280;2213;49.720;7.296;2023-01-29T13:41:57;99066.72;;;1.20;100.00
4398;BME280;2213;49.720;7.296;2023-01-29T13:44:33;99070.00;;;1.22;100.00
4398;BME280;2213;49.720;7.296;2023-01-29T13:47:07;99067.66;;;1.19;100.00
4398;BME280;2213;49.720;7.296;2023-01-29T13:49:41;99064.25;;;1.19;100.00
4398;BME280;2213;49.720;7.296;2023-01-29T13:52:29;99062.50;;;1.19;100.00
4398;BME280;2213;49.720;7.296;2023-01-29T13:55:05;99056.22;;;1.23;100.00
4398;BME280;2213;49.720;7.296;2023-01-29T13:57:53;99048.28;;;1.26;100.00
4398;BME280;2213;49.720;7.296;2023-01-29T14:00:58;99050.97;;;1.25;100.00
4398;BME280;2213;49.720;7.296;2023-01-29T14:03:53;99045.50;;;1.29;100.00
4398;BME280;2213;49.720;7.296;2023-01-29T14:06:41;99037.88;;;1.28;100.00
4398;BME280;2213;49.720;7.296;2023-01-29T14:12:47;99032.41;;;1.32;100.00
4398;BME280;2213;49.720;7.296;2023-01-29T14:15:32;99015.19;;;1.33;100.00